sensor_id;sensor_type;location;lat;lon;timestamp;pressure;altitude;pressure_sealevel;temperature;humidity
5703;BME280;2876;51.738;10.050;2022-10-16T00:00:34;98843.59;;;14.51;100.00
5703;BME280;2876;51.738;10.050;2022-10-16T00:06:36;98841.59;;;14.35;100.00
5703;BME280;2876;51.738;10.050;2022-10-16T00:20:19;98863.63;;;14.43;100.00
5703;BME280;2876;51.738;10.050;2022-10-16T00:26:22;98869.63;;;14.34;100.00
5703;BME280;2876;51.738;10.050;2022-10-16T00:32:24;98868.94;;;14.50;100.00
5703;BME280;2876;51.738;10.050;2022-10-16T00:38:26;98877.97;;;14.56;100.00
5703;BME280;2876;51.738;10.050;2022-10-16T00:44:56;98868.06;;;14.85;100.00
5703;BME280;2876;51.738;10.050;2022-10-16T00:50:59;98872.88;;;14.83;100.00
5703;BME280;2876;51.738;10.050;2022-10-16T00:57:04;98869.72;;;14.86;100.00
5703;BME280;2876;51.738;10.050;2022-10-16T01:03:30;98861.25;;;14.82;100.00
5703;BME280;2876;51.738;10.050;2022-10-16T01:10:17;98861.63;;;14.86;100.00
5703;BME280;2876;51.738;10.050;2022-10-16T01:16:48;98870.78;;;14.73;100.00
5703;BME280;2876;51.738;10.050;2022-10-16T01:36:25;98880.63;;;14.91;100.00
5703;BME280;2876;51.738;10.050;2022-10-16T01:42:36;98885.66;;;14.87;100.00
5703;BME280;2876;51.738;10.050;2022-10-16T01:48:41;98877.03;;;15.14;100.00
5703;BME280;2876;51.738;10.050;2022-10-16T01:54:47;98896.56;;;14.92;100.00
5703;BME280;2876;51.738;10.050;2022-10-16T02:00:51;98904.66;;;15.04;100.00
5703;BME280;2876;51.738;10.050;2022-10-16T02:06:54;98892.44;;;15.02;100.00
5703;BME280;2876;51.738;10.050;2022-10-16T02:19:07;98897.22;;;15.11;100.00
5703;BME280;2876;51.738;10.050;2022-10-16T02:25:19;98909.97;;;14.99;100.00
5703;BME280;2876;51.738;10.050;2022-10-16T02:31:27;98924.94;;;15.07;100.00
5703;BME280;2876;51.738;10.050;2022-10-16T02:37:31;98928.97;;;15.04;100.00
5703;BME280;2876;51.738;10.050;2022-10-16T02:43:34;98929.88;;;15.10;100.00
5703;BME280;2876;51.738;10.050;2022-10-16T02:49:36;98919.56;;;15.07;100.00
5703;BME280;2876;51.738;10.050;2022-10-16T02:55:38;98912.38;;;15.12;100.00
5703;BME280;2876;51.738;10.050;2022-10-16T03:01:39;98919.81;;;15.05;100.00
5703;BME280;2876;51.738;10.050;2022-10-16T03:07:42;98918.97;;;15.05;100.00
5703;BME280;2876;51.738;10.050;2022-10-16T03:13:44;98906.91;;;14.95;100.00
5703;BME280;2876;51.738;10.050;2022-10-16T03:19:46;98913.50;;;14.88;100.00
5703;BME280;2876;51.738;10.050;2022-10-16T03:25:47;98915.63;;;14.86;100.00
5703;BME280;2876;51.738;10.050;2022-10-16T03:31:49;98927.72;;;14.60;100.00
5703;BME280;2876;51.738;10.050;2022-10-16T03:37:51;98923.47;;;14.76;100.00
5703;BME280;2876;51.738;10.050;2022-10-16T03:43:53;98935.84;;;14.60;100.00
5703;BME280;2876;51.738;10.050;2022-10-16T03:56:05;98948.38;;;14.78;100.00
5703;BME280;2876;51.738;10.050;2022-10-16T04:02:07;98939.63;;;15.11;100.00
5703;BME280;2876;51.738;10.050;2022-10-16T04:08:09;98949.44;;;14.77;100.00
5703;BME280;2876;51.738;10.050;2022-10-16T04:14:11;98945.06;;;14.87;100.00
5703;BME280;2876;51.738;10.050;2022-10-16T04:20:13;98956.59;;;14.94;100.00
5703;BME280;2876;51.738;10.050;2022-10-16T04:26:16;98966.56;;;15.34;100.00
5703;BME280;2876;51.738;10.050;2022-10-16T04:32:52;98962.56;;;15.08;100.00
5703;BME280;2876;51.738;10.050;2022-10-16T04:38:55;98944.25;;;15.39;100.00
5703;BME280;2876;51.738;10.050;2022-10-16T04:44:57;98975.38;;;15.41;100.00
5703;BME280;2876;51.738;10.050;2022-10-16T04:50:59;98972.94;;;15.28;100.00
5703;BME280;2876;51.738;10.050;2022-10-16T04:57:01;98962.13;;;15.28;100.00
5703;BME280;2876;51.738;10.050;2022-10-16T05:03:04;98984.03;;;15.67;100.00
5703;BME280;2876;51.738;10.050;2022-10-16T05:09:09;98968.63;;;15.27;100.00
5703;BME280;2876;51.738;10.050;2022-10-16T05:15:14;98959.00;;;15.19;100.00
5703;BME280;2876;51.738;10.050;2022-10-16T05:21:27;98948.88;;;15.27;100.00
5703;BME280;2876;51.738;10.050;2022-10-16T05:27:29;98990.00;;;15.17;100.00
5703;BME280;2876;51.738;10.050;2022-10-16T05:33:31;99019.81;;;15.34;100.00
5703;BME280;2876;51.738;10.050;2022-10-16T05:39:33;98992.72;;;15.05;100.00
5703;BME280;2876;51.738;10.050;2022-10-16T05:45:38;98994.84;;;14.91;100.00
5703;BME280;2876;51.738;10.050;2022-10-16T05:51:40;98998.63;;;14.79;100.00
5703;BME280;2876;51.738;10.050;2022-10-16T05:57:43;99021.63;;;14.69;100.00
5703;BME280;2876;51.738;10.050;2022-10-16T06:03:46;99028.91;;;14.69;100.00
5703;BME280;2876;51.738;10.050;2022-10-16T06:10:01;99035.69;;;14.71;100.00
5703;BME280;2876;51.738;10.050;2022-10-16T06:16:04;99047.91;;;14.74;100.00
5703;BME280;2876;51.738;10.050;2022-10-16T06:22:07;99058.38;;;14.82;100.00
5703;BME280;2876;51.738;10.050;2022-10-16T06:28:09;99077.16;;;15.12;100.00
5703;BME280;2876;51.738;10.050;2022-10-16T06:34:11;99074.09;;;15.20;100.00
5703;BME280;2876;51.738;10.050;2022-10-16T06:40:14;99074.47;;;15.36;100.00
5703;BME280;2876;51.738;10.050;2022-10-16T06:46:21;99082.69;;;15.41;100.00
5703;BME280;2876;51.738;10.050;2022-10-16T06:52:23;99094.75;;;15.73;100.00
5703;BME280;2876;51.738;10.050;2022-10-16T06:58:26;99122.47;;;15.57;100.00
5703;BME280;2876;51.738;10.050;2022-10-16T07:04:29;99135.28;;;15.62;100.00
5703;BME280;2876;51.738;10.050;2022-10-16T07:10:32;99140.47;;;15.75;98.84
5703;BME280;2876;51.738;10.050;2022-10-16T07:16:34;99130.50;;;15.64;99.32
5703;BME280;2876;51.738;10.050;2022-10-16T07:22:39;99148.78;;;15.97;98.21
5703;BME280;2876;51.738;10.050;2022-10-16T07:28:44;99153.88;;;15.82;97.68
5703;BME280;2876;51.738;10.050;2022-10-16T07:34:46;99170.06;;;16.05;97.55
5703;BME280;2876;51.738;10.050;2022-10-16T07:47:04;99179.28;;;16.33;95.98
5703;BME280;2876;51.738;10.050;2022-10-16T07:53:06;99168.25;;;16.22;94.03
5703;BME280;2876;51.738;10.050;2022-10-16T07:59:09;99196.19;;;16.68;92.60
5703;BME280;2876;51.738;10.050;2022-10-16T08:05:12;99216.06;;;16.86;91.71
5703;BME280;2876;51.738;10.050;2022-10-16T08:11:14;99179.91;;;16.80;91.44
5703;BME280;2876;51.738;10.050;2022-10-16T08:17:19;99202.66;;;16.79;90.85
5703;BME280;2876;51.738;10.050;2022-10-16T08:23:21;99202.56;;;16.74;89.80
5703;BME280;2876;51.738;10.050;2022-10-16T08:29:23;99218.59;;;16.92;89.24
5703;BME280;2876;51.738;10.050;2022-10-16T08:35:25;99234.81;;;17.04;88.83
5703;BME280;2876;51.738;10.050;2022-10-16T08:48:06;99246.00;;;17.24;85.71
5703;BME280;2876;51.738;10.050;2022-10-16T08:54:34;99260.16;;;17.60;84.19
5703;BME280;2876;51.738;10.050;2022-10-16T09:00:48;99272.41;;;17.80;82.79
5703;BME280;2876;51.738;10.050;2022-10-16T09:13:43;99289.31;;;18.42;79.86
5703;BME280;2876;51.738;10.050;2022-10-16T09:26:46;99293.94;;;18.64;77.48
5703;BME280;2876;51.738;10.050;2022-10-16T09:32:51;99301.81;;;18.43;77.38
5703;BME280;2876;51.738;10.050;2022-10-16T09:39:14;99296.84;;;18.35;76.20
5703;BME280;2876;51.738;10.050;2022-10-16T09:45:23;99315.13;;;18.23;77.95
5703;BME280;2876;51.738;10.050;2022-10-16T09:51:36;99306.31;;;18.33;76.58
5703;BME280;2876;51.738;10.050;2022-10-16T09:57:52;99307.13;;;18.33;75.01
5703;BME280;2876;51.738;10.050;2022-10-16T10:03:57;99314.56;;;18.43;75.16
5703;BME280;2876;51.738;10.050;2022-10-16T10:10:05;99312.09;;;18.58;74.19
5703;BME280;2876;51.738;10.050;2022-10-16T10:17:06;99326.63;;;18.30;76.37
5703;BME280;2876;51.738;10.050;2022-10-16T10:24:09;99319.59;;;18.12;75.36
5703;BME280;2876;51.738;10.050;2022-10-16T10:30:24;99326.47;;;18.59;74.31
5703;BME280;2876;51.738;10.050;2022-10-16T10:36:40;99324.34;;;18.83;72.17
5703;BME280;2876;51.738;10.050;2022-10-16T11:02:38;99349.91;;;19.04;66.41
5703;BME280;2876;51.738;10.050;2022-10-16T11:08:55;99349.41;;;19.12;68.15
5703;BME280;2876;51.738;10.050;2022-10-16T11:15:24;99354.69;;;19.45;66.48
5703;BME280;2876;51.738;10.050;2022-10-16T11:21:36;99354.81;;;19.88;63.12
5703;BME280;2876;51.738;10.050;2022-10-16T11:34:34;99348.22;;;20.16;61.38
5703;BME280;2876;51.738;10.050;2022-10-16T11:40:59;99360.59;;;19.96;59.92
5703;BME280;2876;51.738;10.050;2022-10-16T11:47:44;99350.81;;;19.63;59.01
5703;BME280;2876;51.738;10.050;2022-10-16T11:54:24;99345.09;;;19.65;59.06
5703;BME280;2876;51.738;10.050;2022-10-16T12:07:10;99346.03;;;20.50;55.86
5703;BME280;2876;51.738;10.050;2022-10-16T12:13:35;99348.66;;;20.87;54.93
5703;BME280;2876;51.738;10.050;2022-10-16T12:19:38;99350.03;;;20.90;55.80
5703;BME280;2876;51.738;10.050;2022-10-16T12:25:40;99362.69;;;21.26;56.06
5703;BME280;2876;51.738;10.050;2022-10-16T12:31:49;99364.56;;;21.16;54.81
5703;BME280;2876;51.738;10.050;2022-10-16T12:38:20;99367.47;;;20.89;54.81
5703;BME280;2876;51.738;10.050;2022-10-16T12:50:32;99378.94;;;20.91;55.33
5703;BME280;2876;51.738;10.050;2022-10-16T13:03:40;99390.97;;;21.00;55.08
5703;BME280;2876;51.738;10.050;2022-10-16T13:29:00;99411.38;;;24.60;44.88
5703;BME280;2876;51.738;10.050;2022-10-16T13:35:03;99427.34;;;25.06;46.21
5703;BME280;2876;51.738;10.050;2022-10-16T13:41:20;99423.56;;;25.26;43.42
5703;BME280;2876;51.738;10.050;2022-10-16T13:47:29;99424.53;;;24.29;44.16
5703;BME280;2876;51.738;10.050;2022-10-16T13:53:34;99424.72;;;24.96;42.24
5703;BME280;2876;51.738;10.050;2022-10-16T13:59:37;99429.47;;;24.61;42.55
5703;BME280;2876;51.738;10.050;2022-10-16T14:06:04;99428.16;;;23.36;45.63
5703;BME280;2876;51.738;10.050;2022-10-16T14:12:11;99426.16;;;22.61;48.00
5703;BME280;2876;51.738;10.050;2022-10-16T14:18:21;99442.34;;;22.22;50.15
5703;BME280;2876;51.738;10.050;2022-10-16T14:24:31;99445.34;;;22.15;50.51
5703;BME280;2876;51.738;10.050;2022-10-16T14:30:35;99429.66;;;21.55;51.73
5703;BME280;2876;51.738;10.050;2022-10-16T14:36:41;99437.78;;;20.76;55.17
5703;BME280;2876;51.738;10.050;2022-10-16T14:42:44;99435.59;;;20.84;54.71
5703;BME280;2876;51.738;10.050;2022-10-16T14:48:50;99445.41;;;20.80;54.50
5703;BME280;2876;51.738;10.050;2022-10-16T14:54:53;99447.78;;;20.34;56.40
5703;BME280;2876;51.738;10.050;2022-10-16T15:00:56;99452.44;;;20.38;57.78
5703;BME280;2876;51.738;10.050;2022-10-16T15:06:58;99450.47;;;19.96;61.02
5703;BME280;2876;51.738;10.050;2022-10-16T15:13:00;99448.31;;;19.71;61.27
5703;BME280;2876;51.738;10.050;2022-10-16T15:19:02;99442.25;;;18.98;65.86
5703;BME280;2876;51.738;10.050;2022-10-16T15:31:09;99444.38;;;18.24;69.80
5703;BME280;2876;51.738;10.050;2022-10-16T15:37:14;99449.41;;;19.26;67.14
5703;BME280;2876;51.738;10.050;2022-10-16T15:43:17;99459.28;;;19.11;66.32
5703;BME280;2876;51.738;10.050;2022-10-16T15:49:19;99483.28;;;17.96;70.76
5703;BME280;2876;51.738;10.050;2022-10-16T16:01:47;99473.00;;;17.29;73.96
5703;BME280;2876;51.738;10.050;2022-10-16T16:13:58;99482.25;;;16.69;78.18
5703;BME280;2876;51.738;10.050;2022-10-16T16:20:01;99494.34;;;16.43;80.31
5703;BME280;2876;51.738;10.050;2022-10-16T16:26:14;99482.69;;;16.43;80.86
5703;BME280;2876;51.738;10.050;2022-10-16T16:32:17;99491.31;;;16.40;81.08
5703;BME280;2876;51.738;10.050;2022-10-16T16:38:18;99516.13;;;16.37;81.35
5703;BME280;2876;51.738;10.050;2022-10-16T16:44:20;99524.50;;;16.47;81.40
5703;BME280;2876;51.738;10.050;2022-10-16T16:50:22;99502.38;;;16.62;80.43
5703;BME280;2876;51.738;10.050;2022-10-16T16:56:25;99487.41;;;16.59;80.52
5703;BME280;2876;51.738;10.050;2022-10-16T17:02:27;99505.25;;;16.25;80.58
5703;BME280;2876;51.738;10.050;2022-10-16T17:08:29;99532.38;;;16.07;80.70
5703;BME280;2876;51.738;10.050;2022-10-16T17:14:31;99536.59;;;16.03;82.11
5703;BME280;2876;51.738;10.050;2022-10-16T17:20:35;99538.22;;;15.92;82.01
5703;BME280;2876;51.738;10.050;2022-10-16T17:26:37;99551.88;;;15.67;82.85
5703;BME280;2876;51.738;10.050;2022-10-16T17:32:42;99551.78;;;15.55;84.06
5703;BME280;2876;51.738;10.050;2022-10-16T17:38:44;99548.44;;;15.53;84.05
5703;BME280;2876;51.738;10.050;2022-10-16T17:44:46;99555.03;;;15.64;83.17
5703;BME280;2876;51.738;10.050;2022-10-16T17:50:48;99561.25;;;15.64;83.48
5703;BME280;2876;51.738;10.050;2022-10-16T17:56:50;99573.19;;;15.75;83.44
5703;BME280;2876;51.738;10.050;2022-10-16T18:02:52;99577.22;;;15.84;83.34
5703;BME280;2876;51.738;10.050;2022-10-16T18:08:56;99586.34;;;15.90;83.09
5703;BME280;2876;51.738;10.050;2022-10-16T18:14:59;99599.00;;;15.89;83.69
5703;BME280;2876;51.738;10.050;2022-10-16T18:21:05;99592.72;;;15.77;84.53
5703;BME280;2876;51.738;10.050;2022-10-16T18:27:19;99602.63;;;15.83;84.63
5703;BME280;2876;51.738;10.050;2022-10-16T18:39:58;99591.81;;;15.83;85.44
5703;BME280;2876;51.738;10.050;2022-10-16T18:46:04;99610.31;;;15.86;85.01
5703;BME280;2876;51.738;10.050;2022-10-16T18:52:06;99622.22;;;15.97;85.18
5703;BME280;2876;51.738;10.050;2022-10-16T18:58:08;99626.59;;;15.98;85.18
5703;BME280;2876;51.738;10.050;2022-10-16T19:04:14;99606.00;;;15.97;85.41
5703;BME280;2876;51.738;10.050;2022-10-16T19:10:17;99626.97;;;16.02;85.92
5703;BME280;2876;51.738;10.050;2022-10-16T19:16:30;99636.72;;;16.03;85.69
5703;BME280;2876;51.738;10.050;2022-10-16T19:22:35;99636.59;;;15.79;86.90
5703;BME280;2876;51.738;10.050;2022-10-16T19:29:00;99634.84;;;15.85;86.75
5703;BME280;2876;51.738;10.050;2022-10-16T19:35:03;99622.63;;;15.82;86.99
5703;BME280;2876;51.738;10.050;2022-10-16T19:41:10;99624.41;;;15.88;87.52
5703;BME280;2876;51.738;10.050;2022-10-16T19:47:12;99621.75;;;16.18;87.77
5703;BME280;2876;51.738;10.050;2022-10-16T19:53:15;99638.03;;;16.30;88.40
5703;BME280;2876;51.738;10.050;2022-10-16T19:59:17;99652.13;;;16.51;87.67
5703;BME280;2876;51.738;10.050;2022-10-16T20:05:21;99662.31;;;16.37;88.41
5703;BME280;2876;51.738;10.050;2022-10-16T20:11:26;99666.59;;;16.44;88.08
5703;BME280;2876;51.738;10.050;2022-10-16T20:17:29;99654.09;;;16.73;86.63
5703;BME280;2876;51.738;10.050;2022-10-16T20:23:31;99668.69;;;16.42;87.97
5703;BME280;2876;51.738;10.050;2022-10-16T20:29:34;99670.06;;;16.33;88.99
5703;BME280;2876;51.738;10.050;2022-10-16T20:35:42;99676.63;;;16.56;88.33
5703;BME280;2876;51.738;10.050;2022-10-16T20:41:45;99663.41;;;16.47;89.86
5703;BME280;2876;51.738;10.050;2022-10-16T20:47:47;99652.94;;;16.51;90.96
5703;BME280;2876;51.738;10.050;2022-10-16T20:54:01;99671.78;;;16.58;91.98
5703;BME280;2876;51.738;10.050;2022-10-16T21:00:04;99670.97;;;16.57;92.88
5703;BME280;2876;51.738;10.050;2022-10-16T21:06:08;99673.53;;;16.52;92.88
5703;BME280;2876;51.738;10.050;2022-10-16T21:12:11;99656.44;;;16.40;93.08
5703;BME280;2876;51.738;10.050;2022-10-16T21:18:13;99677.44;;;16.74;92.67
5703;BME280;2876;51.738;10.050;2022-10-16T21:24:15;99676.47;;;16.20;94.23
5703;BME280;2876;51.738;10.050;2022-10-16T21:30:18;99677.75;;;16.18;94.13
5703;BME280;2876;51.738;10.050;2022-10-16T21:36:30;99678.22;;;16.15;94.79
5703;BME280;2876;51.738;10.050;2022-10-16T21:42:35;99680.47;;;16.18;95.20
5703;BME280;2876;51.738;10.050;2022-10-16T21:48:38;99666.78;;;16.31;94.92
5703;BME280;2876;51.738;10.050;2022-10-16T21:54:40;99661.84;;;16.10;95.33
5703;BME280;2876;51.738;10.050;2022-10-16T22:00:42;99667.41;;;15.78;96.27
5703;BME280;2876;51.738;10.050;2022-10-16T22:06:45;99667.16;;;15.80;95.56
5703;BME280;2876;51.738;10.050;2022-10-16T22:13:00;99658.78;;;15.44;96.41
5703;BME280;2876;51.738;10.050;2022-10-16T22:19:04;99671.38;;;15.32;96.20
5703;BME280;2876;51.738;10.050;2022-10-16T22:25:08;99662.50;;;15.25;97.20
5703;BME280;2876;51.738;10.050;2022-10-16T22:38:52;99664.28;;;15.13;98.32
5703;BME280;2876;51.738;10.050;2022-10-16T22:45:11;99674.53;;;15.04;98.81
5703;BME280;2876;51.738;10.050;2022-10-16T22:51:16;99678.56;;;14.95;99.17
5703;BME280;2876;51.738;10.050;2022-10-16T22:57:18;99674.81;;;14.89;100.00
5703;BME280;2876;51.738;10.050;2022-10-16T23:03:20;99667.22;;;14.80;100.00
5703;BME280;2876;51.738;10.050;2022-10-16T23:09:23;99655.56;;;14.86;100.00
5703;BME280;2876;51.738;10.050;2022-10-16T23:15:25;99654.59;;;14.74;100.00
5703;BME280;2876;51.738;10.050;2022-10-16T23:21:27;99661.78;;;14.86;100.00
5703;BME280;2876;51.738;10.050;2022-10-16T23:27:35;99665.06;;;14.63;100.00
5703;BME280;2876;51.738;10.050;2022-10-16T23:33:48;99668.94;;;14.74;100.00
5703;BME280;2876;51.738;10.050;2022-10-16T23:39:52;99671.78;;;14.79;100.00
5703;BME280;2876;51.738;10.050;2022-10-16T23:45:54;99670.28;;;14.90;100.00
5703;BME280;2876;51.738;10.050;2022-10-16T23:51:56;99671.53;;;15.12;100.00
5703;BME280;2876;51.738;10.050;2022-10-16T23:57:58;99672.13;;;14.89;100.00
